Time;durP1;ratioP1;P1;durP2;ratioP2;P2;SDS_P1;SDS_P2;PMS_P1;PMS_P2;Temp;Humidity;BMP_temperature;BMP_pressure;BME280_temperature;BME280_humidity;BME280_pressure;Samples;Min_cycle;Max_cycle;Signal;HPM_P1;HPM_P2
2021/10/12 00:01:29;;;;;;;36.87;24.37;;;8.20;99.90;;;;;;5072802;28;20219;-69
2021/10/12 00:03:56;;;;;;;38.67;25.63;;;8.20;99.90;;;;;;5068601;28;20216;-70
2021/10/12 00:06:23;;;;;;;36.07;23.40;;;8.20;99.90;;;;;;5056615;28;20218;-70
2021/10/12 00:08:51;;;;;;;36.53;24.27;;;8.20;99.90;;;;;;5063370;28;20224;-69
2021/10/12 00:11:18;;;;;;;40.87;25.23;;;8.20;99.90;;;;;;5057152;28;20206;-70
2021/10/12 00:13:45;;;;;;;39.73;24.27;;;8.10;99.90;;;;;;5053858;28;20213;-69
2021/10/12 00:16:11;;;;;;;41.97;24.73;;;8.10;99.90;;;;;;5067602;28;20211;-69
2021/10/12 00:18:38;;;;;;;43.33;27.30;;;8.10;99.90;;;;;;5053243;28;20216;-67
2021/10/12 00:21:05;;;;;;;36.87;23.97;;;8.10;99.90;;;;;;5057771;28;20206;-70
2021/10/12 00:23:33;;;;;;;40.77;25.10;;;8.00;99.90;;;;;;5052392;28;20209;-68
2021/10/12 00:26:01;;;;;;;39.57;24.30;;;7.90;99.90;;;;;;5060910;28;20329;-69
2021/10/12 00:28:28;;;;;;;39.60;24.00;;;8.00;99.90;;;;;;5065409;28;20471;-69
2021/10/12 00:30:54;;;;;;;38.47;24.77;;;8.00;99.90;;;;;;5054949;28;20205;-69
2021/10/12 00:33:21;;;;;;;33.67;23.87;;;7.90;99.90;;;;;;5060085;28;20721;-68
2021/10/12 00:35:48;;;;;;;36.83;23.33;;;7.90;99.90;;;;;;5073452;28;20245;-68
2021/10/12 00:38:15;;;;;;;36.67;23.27;;;7.90;99.90;;;;;;5066111;28;20205;-69
2021/10/12 00:40:42;;;;;;;35.60;24.57;;;7.90;99.90;;;;;;5070288;28;20772;-69
2021/10/12 00:43:10;;;;;;;38.33;25.03;;;7.90;99.90;;;;;;5071609;28;20204;-69
2021/10/12 00:45:38;;;;;;;36.77;24.47;;;7.80;99.90;;;;;;5058183;28;20212;-69
2021/10/12 00:48:07;;;;;;;40.77;24.97;;;7.80;99.90;;;;;;5072372;28;20242;-69
2021/10/12 00:50:35;;;;;;;42.07;25.50;;;7.80;99.90;;;;;;5072109;28;20208;-71
2021/10/12 00:53:03;;;;;;;36.23;23.57;;;7.80;99.90;;;;;;5057208;28;20203;-70
2021/10/12 00:55:30;;;;;;;34.93;24.80;;;7.80;99.90;;;;;;5075417;28;20213;-76
2021/10/12 00:57:58;;;;;;;42.37;24.73;;;7.80;99.90;;;;;;5057490;28;20206;-75
2021/10/12 01:00:26;;;;;;;38.53;24.57;;;7.80;99.90;;;;;;5061719;28;20217;-75
2021/10/12 01:02:53;;;;;;;36.00;25.73;;;7.80;99.90;;;;;;5054995;28;20201;-74
2021/10/12 01:05:20;;;;;;;38.57;23.73;;;7.70;99.90;;;;;;5063370;28;20205;-75
2021/10/12 01:07:47;;;;;;;33.50;24.37;;;7.70;99.90;;;;;;5069416;28;20300;-75
2021/10/12 01:10:14;;;;;;;38.43;24.90;;;7.70;99.90;;;;;;5069817;28;20208;-73
2021/10/12 01:12:41;;;;;;;37.87;25.77;;;7.70;99.90;;;;;;5054842;28;20298;-74
2021/10/12 01:15:10;;;;;;;38.57;24.30;;;7.70;99.90;;;;;;5055357;28;20216;-76
2021/10/12 01:17:39;;;;;;;39.87;24.20;;;7.70;99.90;;;;;;5067167;28;20220;-74
2021/10/12 01:20:09;;;;;;;39.47;24.00;;;7.60;99.90;;;;;;5056039;28;20293;-75
2021/10/12 01:22:40;;;;;;;38.77;24.87;;;7.60;99.90;;;;;;5058501;28;20213;-74
2021/10/12 01:25:07;;;;;;;37.20;24.07;;;7.60;99.90;;;;;;5069279;28;20220;-74
2021/10/12 01:27:34;;;;;;;38.80;25.53;;;7.50;99.90;;;;;;5056252;28;20271;-74
2021/10/12 01:30:01;;;;;;;37.33;24.20;;;7.50;99.90;;;;;;5069821;28;20292;-74
2021/10/12 01:32:27;;;;;;;37.53;25.37;;;7.50;99.90;;;;;;5055293;28;20217;-74
2021/10/12 01:35:00;;;;;;;38.13;25.60;;;7.40;99.90;;;;;;5060319;28;20208;-74
2021/10/12 01:37:28;;;;;;;37.53;25.00;;;7.50;99.90;;;;;;5067105;28;20222;-73
2021/10/12 01:39:56;;;;;;;40.80;25.43;;;7.50;99.90;;;;;;5067916;28;20611;-73
2021/10/12 01:42:24;;;;;;;41.07;25.20;;;7.40;99.90;;;;;;5060637;28;20296;-74
2021/10/12 01:44:52;;;;;;;37.67;25.07;;;7.50;99.90;;;;;;5058920;28;20246;-74
2021/10/12 01:47:19;;;;;;;39.27;24.63;;;7.60;99.90;;;;;;5054740;28;20215;-73
2021/10/12 01:49:46;;;;;;;38.20;24.97;;;7.60;99.90;;;;;;5055410;28;20292;-74
2021/10/12 01:52:14;;;;;;;36.67;25.13;;;7.50;99.90;;;;;;5067465;28;20209;-75
2021/10/12 01:54:41;;;;;;;35.47;23.83;;;7.60;99.90;;;;;;5069406;28;20206;-74
2021/10/12 01:57:09;;;;;;;42.07;26.67;;;7.60;99.90;;;;;;5054398;28;20206;-74
2021/10/12 01:59:36;;;;;;;36.00;24.07;;;7.60;99.90;;;;;;5057951;28;20202;-74
2021/10/12 02:02:03;;;;;;;42.80;26.07;;;7.60;99.90;;;;;;5071536;28;20292;-72
2021/10/12 02:04:30;;;;;;;40.07;24.97;;;7.60;99.90;;;;;;5057395;28;20212;-73
2021/10/12 02:06:57;;;;;;;45.17;25.73;;;7.60;99.90;;;;;;5064325;28;20251;-73
2021/10/12 02:09:24;;;;;;;37.57;24.73;;;7.60;99.90;;;;;;5066872;28;20201;-74
2021/10/12 02:11:50;;;;;;;41.80;25.87;;;7.60;99.90;;;;;;5057711;28;20289;-75
2021/10/12 02:14:19;;;;;;;41.43;26.20;;;7.70;99.90;;;;;;5059532;28;20212;-75
2021/10/12 02:16:46;;;;;;;39.43;25.57;;;7.70;99.90;;;;;;5062299;28;20584;-71
2021/10/12 02:19:13;;;;;;;39.67;26.17;;;7.70;99.90;;;;;;5067962;28;20273;-73
2021/10/12 02:21:40;;;;;;;41.87;26.53;;;7.80;99.90;;;;;;5060034;28;20206;-72
2021/10/12 02:24:07;;;;;;;41.97;25.97;;;7.80;99.90;;;;;;5067579;28;20673;-73
2021/10/12 02:26:34;;;;;;;42.33;26.87;;;7.80;99.90;;;;;;5076145;28;20221;-72
2021/10/12 02:29:01;;;;;;;41.20;25.13;;;7.80;99.90;;;;;;5057242;28;20301;-73
2021/10/12 02:31:29;;;;;;;40.40;25.47;;;9.10;99.90;;;;;;5076764;28;20308;-72
2021/10/12 02:33:56;;;;;;;38.37;25.23;;;7.90;99.90;;;;;;5062562;28;20288;-72
2021/10/12 02:36:23;;;;;;;41.67;26.63;;;7.90;99.90;;;;;;5077001;28;20741;-73
2021/10/12 02:38:49;;;;;;;42.63;25.03;;;7.90;99.90;;;;;;5069519;28;20589;-73
2021/10/12 02:41:16;;;;;;;41.53;24.77;;;7.90;99.90;;;;;;5058106;28;20302;-74
2021/10/12 02:43:43;;;;;;;45.37;26.23;;;7.90;99.90;;;;;;5060250;28;20220;-74
2021/10/12 02:46:11;;;;;;;43.70;26.10;;;7.90;99.90;;;;;;5077639;28;20247;-74
2021/10/12 02:48:39;;;;;;;39.07;24.47;;;7.90;99.90;;;;;;5071394;28;20229;-73
2021/10/12 02:51:06;;;;;;;42.10;25.10;;;7.90;99.90;;;;;;5061884;28;20559;-74
2021/10/12 02:53:33;;;;;;;43.23;25.60;;;7.90;99.90;;;;;;5067830;28;20248;-73
2021/10/12 02:56:00;;;;;;;42.07;25.23;;;7.90;99.90;;;;;;5059269;28;20201;-73
2021/10/12 02:58:27;;;;;;;47.10;25.40;;;7.90;99.90;;;;;;5058324;28;20643;-73
2021/10/12 03:00:53;;;;;;;42.67;24.37;;;7.90;99.90;;;;;;5065910;28;20213;-72
2021/10/12 03:03:20;;;;;;;47.47;25.80;;;7.90;99.90;;;;;;5061813;28;20201;-73
2021/10/12 03:05:48;;;;;;;42.10;26.10;;;7.90;99.90;;;;;;5077832;28;20211;-74
2021/10/12 03:08:15;;;;;;;43.73;25.33;;;7.80;99.90;;;;;;5069826;28;20217;-75
2021/10/12 03:10:43;;;;;;;41.63;23.97;;;7.80;99.90;;;;;;5057166;28;20288;-74
2021/10/12 03:13:10;;;;;;;43.87;25.23;;;7.80;99.90;;;;;;5056531;28;20194;-73
2021/10/12 03:15:37;;;;;;;42.73;24.60;;;7.80;99.90;;;;;;5061604;28;20244;-74
2021/10/12 03:18:04;;;;;;;46.77;24.80;;;7.80;99.90;;;;;;5062084;28;20198;-74
2021/10/12 03:20:31;;;;;;;44.47;26.33;;;7.80;99.90;;;;;;5073275;28;20617;-75
2021/10/12 03:22:59;;;;;;;39.83;25.07;;;7.80;99.90;;;;;;5063022;28;20210;-74
2021/10/12 03:25:26;;;;;;;38.83;23.83;;;7.80;99.90;;;;;;5060987;28;20678;-74
2021/10/12 03:27:53;;;;;;;44.80;26.23;;;7.80;99.90;;;;;;5056229;28;20238;-73
2021/10/12 03:30:20;;;;;;;41.57;25.17;;;7.80;99.90;;;;;;5068685;28;20209;-73
2021/10/12 03:32:47;;;;;;;40.50;23.83;;;7.80;99.90;;;;;;5070614;28;20292;-74
2021/10/12 03:35:18;;;;;;;44.07;25.93;;;7.80;99.90;;;;;;5062233;28;20334;-73
2021/10/12 03:37:45;;;;;;;45.10;25.73;;;7.80;99.90;;;;;;5066324;28;20210;-73
2021/10/12 03:40:14;;;;;;;48.17;25.43;;;7.90;99.90;;;;;;5070169;28;20798;-74
2021/10/12 03:42:41;;;;;;;43.90;24.73;;;7.90;99.90;;;;;;5067406;28;20205;-74
2021/10/12 03:45:08;;;;;;;42.87;25.30;;;8.00;99.90;;;;;;5062342;28;20252;-74
2021/10/12 03:47:35;;;;;;;44.17;25.37;;;7.90;99.90;;;;;;5067784;28;20232;-74
2021/10/12 03:50:02;;;;;;;44.47;26.53;;;8.00;99.90;;;;;;5062071;28;20201;-74
2021/10/12 03:52:29;;;;;;;49.57;26.10;;;8.00;99.90;;;;;;5073885;28;20663;-74
2021/10/12 03:54:56;;;;;;;47.67;28.77;;;8.00;99.90;;;;;;5055340;28;20216;-71
2021/10/12 03:57:24;;;;;;;48.60;27.57;;;8.00;99.90;;;;;;5060525;28;20213;-72
2021/10/12 03:59:51;;;;;;;51.37;27.30;;;8.00;99.90;;;;;;5056264;28;20693;-73
2021/10/12 04:02:18;;;;;;;47.93;26.73;;;8.00;99.90;;;;;;5066882;28;20216;-72
2021/10/12 04:04:45;;;;;;;49.83;26.90;;;8.10;99.90;;;;;;5058481;28;20293;-73
2021/10/12 04:07:12;;;;;;;44.27;25.27;;;8.10;99.90;;;;;;5056038;28;20228;-73
2021/10/12 04:09:38;;;;;;;45.13;25.20;;;8.10;99.90;;;;;;5055574;28;20206;-72
2021/10/12 04:12:06;;;;;;;41.17;23.60;;;8.10;99.90;;;;;;5056427;28;20210;-74
2021/10/12 04:14:34;;;;;;;42.73;24.60;;;8.10;99.90;;;;;;5055337;28;20213;-73
2021/10/12 04:17:01;;;;;;;44.30;24.30;;;8.10;99.90;;;;;;5057888;28;20202;-74
2021/10/12 04:19:28;;;;;;;40.03;23.93;;;8.10;99.90;;;;;;5063887;28;20267;-73
2021/10/12 04:21:55;;;;;;;44.83;24.27;;;8.10;99.90;;;;;;5060252;28;20589;-73
2021/10/12 04:24:21;;;;;;;40.90;25.13;;;8.20;99.90;;;;;;5064073;28;20209;-72
2021/10/12 04:26:48;;;;;;;41.63;23.60;;;8.20;99.90;;;;;;5054237;28;20208;-73
2021/10/12 04:29:15;;;;;;;41.27;22.27;;;8.20;99.90;;;;;;5065287;28;20233;-72
2021/10/12 04:31:43;;;;;;;41.90;23.53;;;8.20;99.90;;;;;;5055181;28;20202;-73
2021/10/12 04:34:10;;;;;;;41.50;23.50;;;8.30;99.90;;;;;;5062773;28;20201;-73
2021/10/12 04:36:37;;;;;;;39.80;23.83;;;8.30;99.90;;;;;;5059257;28;20255;-72
2021/10/12 04:39:06;;;;;;;37.43;22.50;;;8.30;99.90;;;;;;5065533;28;20292;-72
2021/10/12 04:41:33;;;;;;;38.13;23.20;;;8.30;99.90;;;;;;5060017;28;20241;-74
2021/10/12 04:44:01;;;;;;;38.40;22.80;;;8.30;99.90;;;;;;5065860;28;20228;-74
2021/10/12 04:46:28;;;;;;;41.83;23.20;;;8.40;99.90;;;;;;5064087;28;20296;-72
2021/10/12 04:48:56;;;;;;;39.73;22.63;;;8.40;99.90;;;;;;5069021;28;20341;-72
2021/10/12 04:51:23;;;;;;;39.53;23.47;;;8.40;99.90;;;;;;5059519;28;20205;-73
2021/10/12 04:53:50;;;;;;;38.47;22.87;;;8.50;99.90;;;;;;5055198;28;20201;-73
2021/10/12 04:56:17;;;;;;;43.73;24.83;;;8.50;99.90;;;;;;5054871;28;20202;-73
2021/10/12 04:58:44;;;;;;;45.73;23.77;;;8.50;99.90;;;;;;5055300;28;20301;-72
2021/10/12 05:01:10;;;;;;;45.03;23.93;;;8.50;99.90;;;;;;5060046;28;20639;-74
2021/10/12 05:03:37;;;;;;;39.17;21.70;;;8.50;99.90;;;;;;5062081;28;20213;-73
2021/10/12 05:06:05;;;;;;;39.87;22.47;;;8.40;99.90;;;;;;5073907;28;20677;-72
2021/10/12 05:08:32;;;;;;;43.43;23.07;;;8.40;99.90;;;;;;5065127;28;20236;-73
2021/10/12 05:10:59;;;;;;;35.00;22.63;;;8.50;99.90;;;;;;5068193;28;20289;-73
2021/10/12 05:13:27;;;;;;;42.77;22.60;;;8.50;99.90;;;;;;5054629;28;20325;-73
2021/10/12 05:15:54;;;;;;;39.77;22.40;;;8.50;99.90;;;;;;5057951;28;20642;-75
2021/10/12 05:18:23;;;;;;;38.77;23.90;;;8.50;99.90;;;;;;5064986;28;20213;-73
2021/10/12 05:20:50;;;;;;;39.53;24.63;;;8.50;99.90;;;;;;5074378;28;20200;-73
2021/10/12 05:23:19;;;;;;;36.90;22.87;;;8.60;99.90;;;;;;5067865;28;20230;-69
2021/10/12 05:25:47;;;;;;;44.53;23.60;;;8.60;99.90;;;;;;5061124;28;20240;-70
2021/10/12 05:28:14;;;;;;;43.03;23.60;;;8.60;99.90;;;;;;5058447;28;20237;-70
2021/10/12 05:30:43;;;;;;;38.30;23.23;;;8.60;99.90;;;;;;5071968;28;20205;-69
2021/10/12 05:33:13;;;;;;;43.50;23.87;;;8.70;99.90;;;;;;5064277;28;20202;-69
2021/10/12 05:35:39;;;;;;;35.50;21.70;;;8.70;99.90;;;;;;5062895;28;20229;-68
2021/10/12 05:38:06;;;;;;;43.20;24.07;;;8.70;99.90;;;;;;5070256;28;20208;-69
2021/10/12 05:40:35;;;;;;;37.57;22.27;;;8.80;99.90;;;;;;5075667;28;20205;-69
2021/10/12 05:43:02;;;;;;;40.80;23.00;;;8.80;99.90;;;;;;5075929;28;20231;-70
2021/10/12 05:45:28;;;;;;;37.20;22.00;;;8.90;99.90;;;;;;5065027;28;20212;-69
2021/10/12 05:47:55;;;;;;;38.33;22.17;;;8.80;99.90;;;;;;5069855;28;20225;-69
2021/10/12 05:50:22;;;;;;;41.10;21.40;;;8.90;99.90;;;;;;5073651;28;20205;-70
2021/10/12 05:52:57;;;;;;;38.87;20.90;;;8.90;99.90;;;;;;5068862;28;20206;-76
2021/10/12 05:55:28;;;;;;;36.30;20.10;;;8.90;99.90;;;;;;5077933;28;20207;-74
2021/10/12 05:58:07;;;;;;;40.30;20.80;;;8.90;99.90;;;;;;5079301;28;20221;-74
2021/10/12 06:00:34;;;;;;;37.00;20.57;;;9.00;99.90;;;;;;5065675;28;20214;-75
2021/10/12 06:03:02;;;;;;;37.23;20.77;;;9.00;99.90;;;;;;5067506;28;20288;-74
2021/10/12 06:05:32;;;;;;;34.27;20.30;;;9.00;99.90;;;;;;5074841;28;20244;-73
2021/10/12 06:07:59;;;;;;;33.80;19.53;;;9.00;99.90;;;;;;5069890;28;20585;-74
2021/10/12 06:10:27;;;;;;;30.67;20.07;;;9.10;99.90;;;;;;5077998;28;20332;-74
2021/10/12 06:12:54;;;;;;;31.50;18.47;;;9.10;99.90;;;;;;5072615;28;20209;-73
2021/10/12 06:15:22;;;;;;;32.93;19.10;;;9.20;99.90;;;;;;5074613;28;20233;-75
2021/10/12 06:17:49;;;;;;;33.23;20.17;;;9.20;99.90;;;;;;5076881;28;20244;-75
2021/10/12 06:20:16;;;;;;;29.20;19.07;;;9.20;99.90;;;;;;5077869;28;20631;-75
2021/10/12 06:22:43;;;;;;;34.23;19.83;;;9.10;99.90;;;;;;5070349;28;20205;-75
2021/10/12 06:25:10;;;;;;;33.63;18.90;;;9.20;99.90;;;;;;5078267;28;20640;-73
2021/10/12 06:27:37;;;;;;;31.37;19.40;;;9.20;99.90;;;;;;5064776;28;20225;-74
2021/10/12 06:30:04;;;;;;;34.43;18.80;;;9.20;99.90;;;;;;5068757;28;20255;-76
2021/10/12 06:32:32;;;;;;;26.30;17.13;;;9.30;99.90;;;;;;5066965;28;20649;-74
2021/10/12 06:34:59;;;;;;;28.37;17.87;;;9.30;99.90;;;;;;5072949;28;20226;-72
2021/10/12 06:37:26;;;;;;;33.50;19.03;;;9.30;99.90;;;;;;5072060;28;20697;-72
2021/10/12 06:39:53;;;;;;;30.53;18.23;;;9.30;99.90;;;;;;5069288;28;20634;-72
2021/10/12 06:42:20;;;;;;;30.30;18.33;;;9.30;99.90;;;;;;5071110;28;20359;-71
2021/10/12 06:44:47;;;;;;;27.07;17.43;;;9.40;99.90;;;;;;5071093;28;20220;-74
2021/10/12 06:47:14;;;;;;;32.10;17.00;;;9.50;99.90;;;;;;5067202;28;20310;-73
2021/10/12 06:49:42;;;;;;;25.33;16.33;;;9.60;99.90;;;;;;5068979;28;20315;-74
2021/10/12 06:52:09;;;;;;;27.73;16.20;;;;;;;;;;5071410;28;20265;-74
2021/10/12 06:54:36;;;;;;;21.07;14.93;;;9.80;99.90;;;;;;5057610;28;20213;-74
2021/10/12 06:57:10;;;;;;;22.47;14.53;;;9.90;99.90;;;;;;5071849;28;20260;-70
2021/10/12 06:59:37;;;;;;;22.93;14.67;;;9.90;99.90;;;;;;5064791;28;20245;-71
2021/10/12 07:02:04;;;;;;;22.13;14.17;;;9.90;99.90;;;;;;5059040;28;20707;-72
2021/10/12 07:04:31;;;;;;;22.13;14.33;;;10.00;99.90;;;;;;5062298;28;20227;-71
2021/10/12 07:07:00;;;;;;;22.80;14.17;;;10.00;99.90;;;;;;5070398;28;20281;-72
2021/10/12 07:09:26;;;;;;;24.30;13.70;;;10.00;99.90;;;;;;5071871;28;20221;-72
2021/10/12 07:11:53;;;;;;;22.43;13.47;;;10.00;99.90;;;;;;5074259;28;20215;-73
2021/10/12 07:14:20;;;;;;;21.67;12.97;;;10.10;99.90;;;;;;5073036;28;20205;-71
2021/10/12 07:16:47;;;;;;;22.70;13.10;;;10.10;99.90;;;;;;5062979;28;20209;-72
2021/10/12 07:19:15;;;;;;;20.97;11.13;;;10.20;99.90;;;;;;5065242;28;20293;-71
2021/10/12 07:21:42;;;;;;;18.93;11.70;;;10.20;99.90;;;;;;5071658;28;20204;-70
2021/10/12 07:24:10;;;;;;;18.27;11.50;;;10.20;99.90;;;;;;5069863;28;20641;-70
2021/10/12 07:26:37;;;;;;;15.30;10.63;;;10.20;99.90;;;;;;5071473;28;20237;-71
2021/10/12 07:29:04;;;;;;;17.57;11.13;;;10.20;99.90;;;;;;5060807;28;20308;-71
2021/10/12 07:31:33;;;;;;;15.87;10.63;;;10.20;99.90;;;;;;5069225;28;20210;-69
2021/10/12 07:34:00;;;;;;;13.43;10.30;;;10.20;99.90;;;;;;5061960;28;20206;-70
2021/10/12 07:36:27;;;;;;;13.37;9.53;;;10.20;99.90;;;;;;5073766;28;20256;-72
2021/10/12 07:38:54;;;;;;;16.37;10.50;;;10.10;99.90;;;;;;5064459;28;20205;-71
2021/10/12 07:41:22;;;;;;;12.97;9.33;;;10.20;99.90;;;;;;5059595;28;20606;-71
2021/10/12 07:43:49;;;;;;;15.33;9.77;;;10.20;99.90;;;;;;5070425;28;20209;-72
2021/10/12 07:46:16;;;;;;;13.97;9.97;;;10.20;99.90;;;;;;5064107;28;20202;-71
2021/10/12 07:48:43;;;;;;;17.17;9.87;;;10.30;99.90;;;;;;5066212;28;20663;-72
2021/10/12 07:51:10;;;;;;;17.10;9.40;;;10.30;99.90;;;;;;5067691;28;20205;-71
2021/10/12 07:53:38;;;;;;;15.33;8.40;;;10.30;99.90;;;;;;5060741;28;20296;-72
2021/10/12 07:56:08;;;;;;;11.80;7.70;;;10.40;99.90;;;;;;5071121;28;20252;-72
2021/10/12 07:58:36;;;;;;;11.33;8.00;;;10.50;99.90;;;;;;5063720;28;20248;-72
2021/10/12 08:01:04;;;;;;;15.37;8.53;;;10.50;99.90;;;;;;5068591;28;20216;-72
2021/10/12 08:03:31;;;;;;;12.97;8.17;;;10.60;99.90;;;;;;5058644;28;20296;-70
2021/10/12 08:05:58;;;;;;;11.70;8.33;;;10.60;99.90;;;;;;5068423;28;20291;-71
2021/10/12 08:08:25;;;;;;;12.00;6.93;;;10.60;99.90;;;;;;5073158;28;20225;-72
2021/10/12 08:10:53;;;;;;;11.73;7.63;;;10.60;99.90;;;;;;5059287;28;20216;-70
2021/10/12 08:13:21;;;;;;;12.20;7.67;;;10.60;99.90;;;;;;5071123;28;20300;-70
2021/10/12 08:15:52;;;;;;;10.77;7.13;;;10.70;99.90;;;;;;5063816;28;20193;-70
2021/10/12 08:18:20;;;;;;;8.23;6.67;;;10.70;99.90;;;;;;5068156;28;20543;-71
2021/10/12 08:20:48;;;;;;;11.40;6.30;;;10.70;99.90;;;;;;5054548;28;20260;-71
2021/10/12 08:23:15;;;;;;;12.17;6.90;;;10.70;99.90;;;;;;5066782;28;20288;-70
2021/10/12 08:25:42;;;;;;;11.40;6.80;;;10.70;99.90;;;;;;5068065;28;20621;-71
2021/10/12 08:28:10;;;;;;;11.17;7.00;;;10.70;99.90;;;;;;5060082;28;20765;-71
2021/10/12 08:30:38;;;;;;;11.70;6.80;;;10.80;99.90;;;;;;5070129;28;20282;-71
2021/10/12 08:33:06;;;;;;;11.70;8.03;;;10.90;99.90;;;;;;5059064;28;20202;-69
2021/10/12 08:35:33;;;;;;;9.63;6.60;;;11.00;99.90;;;;;;5061541;28;20304;-70
2021/10/12 08:38:00;;;;;;;9.07;5.90;;;11.00;99.90;;;;;;5059478;28;20205;-71
2021/10/12 08:40:27;;;;;;;8.10;5.87;;;11.00;99.90;;;;;;5058660;28;20572;-71
2021/10/12 08:42:54;;;;;;;10.33;6.20;;;10.90;99.90;;;;;;5058733;28;20325;-71
2021/10/12 08:45:22;;;;;;;9.17;5.50;;;10.80;99.90;;;;;;5059156;28;20245;-71
2021/10/12 08:47:51;;;;;;;8.17;5.47;;;10.80;99.90;;;;;;5067624;28;20232;-71
2021/10/12 08:50:22;;;;;;;6.60;4.93;;;10.80;99.90;;;;;;5057458;28;20227;-70
2021/10/12 08:52:50;;;;;;;6.33;5.00;;;10.80;99.90;;;;;;5060536;28;20698;-70
2021/10/12 08:55:18;;;;;;;6.47;5.17;;;10.90;99.90;;;;;;5060482;28;20548;-70
2021/10/12 08:57:46;;;;;;;12.17;4.70;;;10.90;99.90;;;;;;5064013;28;20585;-70
2021/10/12 09:00:15;;;;;;;7.10;4.67;;;11.10;99.90;;;;;;5054684;28;20202;-70
2021/10/12 09:03:15;;;;;;;7.07;4.17;;;11.60;99.90;;;;;;5055018;28;20232;-69
2021/10/12 09:05:53;;;;;;;6.90;3.40;;;11.90;99.90;;;;;;5055056;28;20206;-69
2021/10/12 09:08:26;;;;;;;5.40;3.83;;;12.10;99.90;;;;;;5057244;28;20212;-71
2021/10/12 09:10:54;;;;;;;5.43;3.57;;;12.30;99.90;;;;;;5058228;28;20217;-69
2021/10/12 09:13:21;;;;;;;5.70;3.70;;;13.10;99.90;;;;;;5060180;28;20259;-70
2021/10/12 09:16:05;;;;;;;6.13;3.40;;;15.20;99.90;;;;;;5062822;28;20209;-70
2021/10/12 09:18:52;;;;;;;5.40;3.10;;;16.50;99.90;;;;;;5059074;28;20206;-69
2021/10/12 09:21:25;;;;;;;7.43;2.90;;;17.30;96.60;;;;;;5063043;28;20685;-70
2021/10/12 09:24:01;;;;;;;5.27;3.10;;;17.50;92.60;;;;;;5070459;28;20250;-70
2021/10/12 09:26:32;;;;;;;4.20;3.33;;;17.40;90.70;;;;;;5072477;28;20201;-70
2021/10/12 09:29:00;;;;;;;6.83;2.90;;;17.00;88.00;;;;;;5062773;28;20232;-70
2021/10/12 09:31:32;;;;;;;4.53;2.83;;;16.50;85.40;;;;;;5065452;28;20218;-70
2021/10/12 09:34:02;;;;;;;4.33;3.07;;;15.80;85.60;;;;;;5059311;28;20673;-69
2021/10/12 09:36:33;;;;;;;3.67;3.20;;;15.20;87.70;;;;;;5057880;28;20237;-69
2021/10/12 09:39:00;;;;;;;4.70;2.73;;;14.80;90.30;;;;;;5066036;28;20542;-72
2021/10/12 09:41:29;;;;;;;3.97;2.27;;;15.70;98.40;;;;;;5056284;28;20222;-71
2021/10/12 09:44:08;;;;;;;2.50;2.30;;;16.60;90.90;;;;;;5069798;28;20205;-72
2021/10/12 09:46:36;;;;;;;4.37;2.70;;;16.50;85.00;;;;;;5072091;28;20205;-71
2021/10/12 09:49:17;;;;;;;5.47;3.60;;;16.00;83.30;;;;;;5075752;28;20292;-71
2021/10/12 09:52:08;;;;;;;4.17;2.57;;;15.50;84.20;;;;;;5075616;28;20661;-72
2021/10/12 09:54:36;;;;;;;3.63;2.73;;;14.90;85.90;;;;;;5068254;28;20206;-71
2021/10/12 09:57:05;;;;;;;5.10;2.57;;;14.90;96.50;;;;;;5055912;28;20221;-71
2021/10/12 09:59:33;;;;;;;4.27;2.30;;;17.30;94.80;;;;;;5069541;28;20312;-72
2021/10/12 10:02:01;;;;;;;2.78;2.00;;;21.50;82.90;;;;;;5062050;28;20288;-71
2021/10/12 10:04:29;;;;;;;5.00;2.20;;;25.40;57.30;;;;;;5056018;28;20209;-72
2021/10/12 10:07:04;;;;;;;2.38;2.05;;;28.70;48.00;;;;;;5054661;28;20264;-72
2021/10/12 10:09:34;;;;;;;3.20;2.13;;;31.70;40.40;;;;;;5055782;28;20217;-72
2021/10/12 10:12:02;;;;;;;2.40;1.70;;;33.30;36.20;;;;;;5066772;28;20213;-72
2021/10/12 10:14:29;;;;;;;5.90;2.00;;;32.00;34.00;;;;;;5069024;28;20205;-72
2021/10/12 10:17:00;;;;;;;3.33;1.88;;;29.90;34.60;;;;;;5061993;28;20201;-73
2021/10/12 10:19:29;;;;;;;4.07;2.58;;;27.90;38.50;;;;;;5062677;28;20217;-71
2021/10/12 10:21:56;;;;;;;5.97;2.45;;;27.10;40.60;;;;;;5061271;28;20551;-72
2021/10/12 10:24:42;;;;;;;4.38;2.30;;;27.20;39.60;;;;;;5062974;28;20201;-72
2021/10/12 10:27:31;;;;;;;4.80;2.40;;;28.30;39.90;;;;;;5054343;28;20239;-71
2021/10/12 10:30:23;;;;;;;5.55;2.50;;;31.70;37.50;;;;;;5056011;28;20674;-71
2021/10/12 10:32:52;;;;;;;4.72;2.00;;;33.30;34.30;;;;;;5074571;28;20201;-70
2021/10/12 10:35:41;;;;;;;4.82;1.88;;;34.30;31.70;;;;;;5067094;28;20265;-71
2021/10/12 10:38:29;;;;;;;3.90;1.83;;;32.70;30.30;;;;;;5057258;28;20302;-71
2021/10/12 10:41:35;;;;;;;5.22;1.95;;;31.30;34.00;;;;;;5054754;28;20639;-71
2021/10/12 10:44:04;;;;;;;3.40;2.00;;;30.00;32.40;;;;;;5057830;28;20621;-71
2021/10/12 10:46:43;;;;;;;4.03;1.45;;;29.50;37.10;;;;;;5062619;28;20213;-71
2021/10/12 10:49:13;;;;;;;7.22;2.05;;;30.50;34.20;;;;;;5055462;28;20233;-71
2021/10/12 10:52:02;;;;;;;3.38;1.77;;;30.80;34.70;;;;;;5057090;28;20206;-72
2021/10/12 10:55:05;;;;;;;5.82;2.60;;;30.30;32.60;;;;;;5060288;28;20723;-71
2021/10/12 10:57:33;;;;;;;3.65;2.13;;;28.60;34.00;;;;;;5060905;28;20208;-70
2021/10/12 11:00:24;;;;;;;3.70;1.88;;;27.00;35.90;;;;;;5060419;28;20216;-71
2021/10/12 11:02:51;;;;;;;3.75;1.80;;;25.90;37.60;;;;;;5056820;28;20245;-72
2021/10/12 11:05:35;;;;;;;3.08;1.67;;;25.10;40.10;;;;;;5066667;28;20232;-71
2021/10/12 11:08:14;;;;;;;4.57;1.60;;;27.30;39.90;;;;;;5057459;28;20684;-71
2021/10/12 11:10:42;;;;;;;5.30;1.60;;;30.90;34.30;;;;;;5071482;28;20217;-71
2021/10/12 11:13:09;;;;;;;4.75;1.95;;;33.90;30.70;;;;;;5060417;28;20209;-76
2021/10/12 11:15:49;;;;;;;2.20;1.50;;;36.30;29.20;;;;;;5073959;28;20305;-71
2021/10/12 11:18:15;;;;;;;2.78;1.73;;;38.10;27.50;;;;;;5071428;28;20198;-71
2021/10/12 11:20:45;;;;;;;3.13;1.55;;;40.10;26.30;;;;;;5073995;28;20602;-71
2021/10/12 11:23:13;;;;;;;2.78;1.38;;;41.50;25.10;;;;;;5073154;28;20216;-68
2021/10/12 11:25:41;;;;;;;2.20;1.23;;;42.30;24.40;;;;;;5073466;28;20614;-69
2021/10/12 11:28:09;;;;;;;3.35;1.85;;;41.90;23.00;;;;;;5070305;28;20327;-73
2021/10/12 11:30:37;;;;;;;4.60;1.58;;;41.00;24.40;;;;;;5062401;28;20229;-70
2021/10/12 11:33:05;;;;;;;1.65;1.27;;;40.20;23.30;;;;;;5061766;28;20217;-69
2021/10/12 11:35:34;;;;;;;2.88;1.90;;;40.00;24.20;;;;;;5061875;28;20206;-69
2021/10/12 11:38:01;;;;;;;5.50;1.77;;;41.00;23.70;;;;;;5061188;28;20201;-70
2021/10/12 11:40:29;;;;;;;3.08;2.10;;;41.90;23.40;;;;;;5065253;28;20288;-70
2021/10/12 11:42:59;;;;;;;2.58;1.90;;;42.90;22.90;;;;;;5057003;28;20669;-71
2021/10/12 11:45:26;;;;;;;3.83;1.90;;;43.00;22.10;;;;;;5053644;28;20575;-70
2021/10/12 11:47:53;;;;;;;4.78;2.22;;;41.50;23.30;;;;;;5064500;28;20206;-69
2021/10/12 11:50:22;;;;;;;3.20;2.13;;;40.30;22.90;;;;;;5060539;28;20221;-70
2021/10/12 11:52:53;;;;;;;2.80;1.83;;;38.60;24.40;;;;;;5062308;28;20303;-71
2021/10/12 11:55:26;;;;;;;3.15;2.08;;;38.60;24.80;;;;;;5067390;28;20979;-67
2021/10/12 11:57:53;;;;;;;3.60;2.00;;;39.60;24.40;;;;;;5056202;28;20624;-68
2021/10/12 12:00:39;;;;;;;2.65;1.73;;;41.00;23.70;;;;;;5058970;28;20202;-70
2021/10/12 12:03:16;;;;;;;3.88;2.15;;;42.60;23.10;;;;;;5052386;28;20208;-70
2021/10/12 12:05:51;;;;;;;4.00;2.13;;;43.90;22.40;;;;;;5058806;28;20259;-69
2021/10/12 12:08:19;;;;;;;5.78;2.30;;;44.30;22.00;;;;;;5064576;28;20193;-70
2021/10/12 12:10:46;;;;;;;5.72;1.98;;;44.40;21.70;;;;;;5056883;28;20233;-70
2021/10/12 12:13:15;;;;;;;3.65;2.05;;;44.10;21.80;;;;;;5065955;28;20560;-70
2021/10/12 12:15:43;;;;;;;4.07;2.20;;;44.10;21.70;;;;;;5065466;28;20404;-70
2021/10/12 12:18:14;;;;;;;4.70;2.13;;;42.00;21.40;;;;;;5064937;28;20215;-71
2021/10/12 12:20:55;;;;;;;4.38;2.30;;;39.10;23.30;;;;;;5055944;28;20672;-70
2021/10/12 12:23:37;;;;;;;3.92;2.13;;;37.10;24.90;;;;;;5068027;28;20219;-70
2021/10/12 12:26:05;;;;;;;3.38;2.25;;;36.70;24.90;;;;;;5066360;28;20237;-71
2021/10/12 12:28:32;;;;;;;3.83;2.40;;;36.80;25.00;;;;;;5066336;28;20237;-70
2021/10/12 12:30:59;;;;;;;4.28;2.40;;;37.80;25.10;;;;;;5060790;28;20236;-71
2021/10/12 12:33:26;;;;;;;5.20;2.30;;;39.10;24.40;;;;;;5070112;28;20301;-71
2021/10/12 12:35:55;;;;;;;3.60;1.90;;;40.40;23.90;;;;;;5065367;28;20702;-71
2021/10/12 12:38:27;;;;;;;4.70;2.17;;;40.10;23.00;;;;;;5068322;28;20213;-71
2021/10/12 12:40:54;;;;;;;4.65;2.05;;;38.70;24.10;;;;;;5062971;28;20244;-70
2021/10/12 12:43:22;;;;;;;4.70;2.42;;;37.20;24.00;;;;;;5065769;28;20276;-70
2021/10/12 12:46:08;;;;;;;3.88;2.08;;;35.00;25.00;;;;;;5069594;28;20231;-71
2021/10/12 12:48:35;;;;;;;4.60;2.28;;;32.20;27.00;;;;;;5071557;28;20290;-71
2021/10/12 12:51:05;;;;;;;3.28;2.00;;;30.10;28.70;;;;;;5059180;28;20237;-70